Aérodrome :
LOGIN :

S'inscrire | Disclaimer

   EN    FR    IT 

 










Légende :    VFR   VFR Marginal   IFR   IFR Intensif   IFR Très Intensif
Visi : 
Plafond : 
>= 8 km
>= 3000ft
5 à 8 km
1000 à 3000 ft
1500m à 5 km
500 à 1000 ft
800 à 1500m
200 à 500 ft
< 800m
< 200 ft
Symboles :   Orages  Brouillard  Fortes neiges  Fortes précipitations  Vent > 20 kt
SIGMETs :   Divers  Orages  Givrage  Turbulence  Onde Orograph.  Cendres Volcan.







- Altitude de l'aérodrome : 512 ft
- Code IATA : URO
- Voir les cartes d'approche


LFOP - Rouen Vallée de Seine

DERNIER METAR :
  • 211300Z AUTO 26005KT 9999 FEW016 BKN024 OVC035 19/15 Q1015 TEMPO 4000 SHRA BKN030TCU

METARs EXPIRÉS :
  • 211230Z AUTO 26004KT 230V310 9999 FEW019 OVC034 19/15 Q1015 TEMPO 4000 SHRA BKN030TCU
  • 211200Z AUTO 23004KT 190V270 9999 FEW018 OVC031 19/15 Q1015 TEMPO 4000 SHRA BKN030TCU
  • 211130Z AUTO 29003KT 250V330 9999 SCT019 OVC029 19/15 Q1014 TEMPO 4000 SHRA BKN030TCU
  • 211100Z AUTO 23003KT 190V270 9999 BKN019 OVC026 19/15 Q1014 NOSIG
  • 211030Z AUTO VRB02KT 9999 OVC022 19/14 Q1014 NOSIG

TAF TAF LFOP
Valide du 21 à 12h jusqu'au 22 à 12h UTC


211100Z 2112/2212 VRB03KT 9999 BKN020
PROB30
TEMPO 2113/2117 4000 SHRA BKN030TCU
PROB30 2204/2207 0200 FG VV///
ATIS : +33 2 35 80 80 34
Météo : +33 2 32 86 52 80
Pas de NOTAMs connus pour ce terrain.



MET'MAP, la Météo Aéronautique d'un coup d'oeil ! - Copyright ORBIFLY Décembre 2007 - Disclaimer

ORBIFLY MET'MAP TEAM :

Programmation & Développement : Alexandra Zaïnal
Conception & Développement : Baudouin d'Aumeries
Co-Programmation & Développement : Marc-Olivier Méhu
Soutien technique & logistique : Manuel Goepfert

Contact : metmap@orbifly.com




SOURCES & CREDITS :

   NOAA